createdAt,value
2019-04-30T00:01:48.658Z,100548.30
2019-04-30T00:04:55.299Z,100554.23
2019-04-30T00:07:59.052Z,100547.80
2019-04-30T00:11:02.681Z,100544.91
2019-04-30T00:14:06.368Z,100541.69
2019-04-30T00:17:15.934Z,100536.27
2019-04-30T00:20:17.671Z,100537.26
2019-04-30T00:23:22.668Z,100542.34
2019-04-30T00:26:26.738Z,100533.53
2019-04-30T00:29:31.102Z,100532.64
2019-04-30T00:32:39.010Z,100534.53
2019-04-30T00:35:40.096Z,100521.15
2019-04-30T00:38:44.825Z,100523.02
2019-04-30T00:41:50.477Z,100523.34
2019-04-30T00:44:59.642Z,100524.47
2019-04-30T00:48:06.403Z,100522.73
2019-04-30T00:51:14.012Z,100523.22
2019-04-30T00:54:22.368Z,100522.86
2019-04-30T00:57:26.522Z,100527.94
2019-04-30T01:00:35.244Z,100524.85
2019-04-30T01:03:49.374Z,100522.63
2019-04-30T01:06:49.875Z,100524.14
2019-04-30T01:09:55.225Z,100528.86
2019-04-30T01:13:07.057Z,100529.02
2019-04-30T01:16:04.516Z,100525.80
2019-04-30T01:19:10.016Z,100522.91
2019-04-30T01:22:13.463Z,100525.77
2019-04-30T01:25:18.706Z,100526.44
2019-04-30T01:28:24.363Z,100524.56
2019-04-30T01:31:31.705Z,100524.53
2019-04-30T01:34:33.568Z,100514.23
2019-04-30T01:37:38.711Z,100515.23
2019-04-30T01:40:47.535Z,100513.41
2019-04-30T01:43:48.813Z,100521.14
2019-04-30T01:46:52.356Z,100511.64
2019-04-30T01:50:00.111Z,100515.02
2019-04-30T01:53:04.786Z,100515.96
2019-04-30T01:56:09.123Z,100509.72
2019-04-30T01:59:20.018Z,100512.44
2019-04-30T02:02:25.310Z,100506.50
2019-04-30T02:05:28.988Z,100519.12
2019-04-30T02:08:32.570Z,100522.07
2019-04-30T02:11:36.230Z,100524.39
2019-04-30T02:14:40.738Z,100529.75
2019-04-30T02:17:44.408Z,100531.25
2019-04-30T02:20:49.736Z,100533.28
2019-04-30T02:23:53.446Z,100532.07
2019-04-30T02:26:57.016Z,100528.53
2019-04-30T02:30:02.623Z,100533.05
2019-04-30T02:33:05.910Z,100537.57
2019-04-30T02:36:16.855Z,100539.73
2019-04-30T02:39:20.513Z,100539.00
2019-04-30T02:42:24.763Z,100538.91
2019-04-30T02:45:30.016Z,100533.81
2019-04-30T02:48:39.305Z,100532.31
2019-04-30T02:51:44.160Z,100536.36
2019-04-30T02:54:50.623Z,100531.04
2019-04-30T02:57:54.132Z,100538.30
2019-04-30T03:01:00.075Z,100538.54
2019-04-30T03:04:03.040Z,100541.36
2019-04-30T03:07:06.553Z,100540.02
2019-04-30T03:10:10.392Z,100536.42
2019-04-30T03:13:13.928Z,100532.83
2019-04-30T03:16:20.804Z,100538.22
2019-04-30T03:19:29.680Z,100535.40
2019-04-30T03:22:33.210Z,100540.91
2019-04-30T03:25:36.742Z,100547.41
2019-04-30T03:28:40.536Z,100545.31
2019-04-30T03:31:45.687Z,100554.23
2019-04-30T03:34:51.792Z,100547.11
2019-04-30T03:37:54.682Z,100547.11
2019-04-30T03:41:00.258Z,100552.34
2019-04-30T03:44:17.463Z,100546.81
2019-04-30T03:47:10.910Z,100552.02
2019-04-30T03:50:14.371Z,100550.91
2019-04-30T03:53:20.211Z,100552.47
2019-04-30T03:56:23.223Z,100550.52
2019-04-30T03:59:26.768Z,100570.88
2019-04-30T04:02:32.356Z,100570.80
2019-04-30T04:05:40.282Z,100564.97
2019-04-30T04:08:45.466Z,100570.03
2019-04-30T04:11:50.779Z,100566.56
2019-04-30T04:14:54.349Z,100573.58
2019-04-30T04:18:00.210Z,100567.02
2019-04-30T04:21:11.526Z,100580.66
2019-04-30T04:24:10.650Z,100578.30
2019-04-30T04:27:13.683Z,100585.70
2019-04-30T04:30:20.098Z,100584.53
2019-04-30T04:33:22.829Z,100586.55
2019-04-30T04:36:26.367Z,100583.17
2019-04-30T04:39:29.912Z,100581.69
2019-04-30T04:42:33.440Z,100586.05
2019-04-30T04:45:39.923Z,100588.45
2019-04-30T04:48:42.368Z,100590.41
2019-04-30T04:51:45.890Z,100588.83
2019-04-30T04:54:50.973Z,100593.31
2019-04-30T04:57:56.158Z,100593.04
2019-04-30T05:01:00.095Z,100587.88
2019-04-30T05:04:04.452Z,100599.75
2019-04-30T05:07:09.068Z,100589.42
2019-04-30T05:10:13.161Z,100600.55
2019-04-30T05:13:16.714Z,100602.09
2019-04-30T05:16:20.429Z,100599.44
2019-04-30T05:19:23.941Z,100597.92
2019-04-30T05:22:29.205Z,100596.22
2019-04-30T05:25:33.762Z,100600.83
2019-04-30T05:28:39.317Z,100599.65
2019-04-30T05:31:42.648Z,100603.70
2019-04-30T05:34:46.178Z,100605.09
2019-04-30T05:37:49.741Z,100614.36
2019-04-30T05:40:53.292Z,100608.95
2019-04-30T05:43:58.977Z,100615.20
2019-04-30T05:47:02.209Z,100619.84
2019-04-30T05:50:08.677Z,100620.86
2019-04-30T05:53:12.110Z,100620.51
2019-04-30T05:56:15.713Z,100613.05
2019-04-30T05:59:20.633Z,100614.78
2019-04-30T06:02:24.307Z,100618.21
2019-04-30T06:05:28.574Z,100620.92
2019-04-30T06:08:33.771Z,100623.88
2019-04-30T06:11:55.006Z,100617.63
2019-04-30T06:15:11.789Z,100619.20
2019-04-30T06:18:14.434Z,100612.05
2019-04-30T06:21:19.302Z,100616.77
2019-04-30T06:24:23.204Z,100619.98
2019-04-30T06:27:29.015Z,100616.09
2019-04-30T06:30:32.332Z,100612.72
2019-04-30T06:33:35.922Z,100614.77
2019-04-30T06:36:51.083Z,100623.73
2019-04-30T06:39:45.068Z,100626.56
2019-04-30T06:42:49.568Z,100622.47
2019-04-30T06:45:53.700Z,100621.50
2019-04-30T06:48:59.399Z,100632.66
2019-04-30T06:52:02.793Z,100625.39
2019-04-30T06:55:07.003Z,100632.08
2019-04-30T06:58:15.026Z,100631.86
2019-04-30T07:01:15.767Z,100623.26
2019-04-30T07:04:19.497Z,100616.98
2019-04-30T07:07:36.299Z,100619.17
2019-04-30T07:10:30.353Z,100612.95
2019-04-30T07:13:34.673Z,100614.49
2019-04-30T07:16:39.726Z,100617.03
2019-04-30T07:19:53.206Z,100620.37
2019-04-30T07:22:52.543Z,100617.88
2019-04-30T07:25:55.693Z,100621.14
2019-04-30T07:28:59.806Z,100617.52
2019-04-30T07:32:05.131Z,100620.90
2019-04-30T07:35:09.585Z,100624.45
2019-04-30T07:38:13.098Z,100630.28
2019-04-30T07:41:16.643Z,100621.11
2019-04-30T07:44:30.980Z,100627.83
2019-04-30T07:47:25.451Z,100630.44
2019-04-30T07:50:31.305Z,100629.91
2019-04-30T07:53:34.238Z,100620.68
2019-04-30T07:56:41.467Z,100621.11
2019-04-30T07:59:43.130Z,100625.48
2019-04-30T08:02:50.495Z,100627.50
2019-04-30T08:05:55.350Z,100629.26
2019-04-30T08:09:00.850Z,100628.94
2019-04-30T08:12:04.637Z,100624.34
2019-04-30T08:15:09.649Z,100620.53
2019-04-30T08:18:13.255Z,100627.39
2019-04-30T08:21:18.854Z,100619.80
2019-04-30T08:24:22.062Z,100629.42
2019-04-30T08:27:25.595Z,100628.80
2019-04-30T08:30:29.970Z,100630.92
2019-04-30T08:33:33.771Z,100624.94
2019-04-30T08:36:38.678Z,100629.34
2019-04-30T08:39:42.338Z,100627.09
2019-04-30T08:42:45.866Z,100615.73
2019-04-30T08:45:49.401Z,100604.67
2019-04-30T08:48:53.817Z,100611.16
2019-04-30T08:51:58.676Z,100612.16
2019-04-30T08:55:13.395Z,100610.36
2019-04-30T08:58:12.460Z,100609.36
2019-04-30T09:01:13.093Z,100609.38
2019-04-30T09:04:16.640Z,100618.89
2019-04-30T09:07:20.244Z,100619.34
2019-04-30T09:10:23.743Z,100618.34
2019-04-30T09:13:28.657Z,100613.28
2019-04-30T09:16:32.441Z,100614.29
2019-04-30T09:19:35.951Z,100604.78
2019-04-30T09:22:39.555Z,100604.63
2019-04-30T09:25:43.040Z,100606.00
2019-04-30T09:28:46.567Z,100616.19
2019-04-30T09:31:50.201Z,100606.66
2019-04-30T09:34:53.806Z,100604.73
2019-04-30T09:38:01.429Z,100602.92
2019-04-30T09:41:02.815Z,100604.34
2019-04-30T09:44:06.519Z,100597.34
2019-04-30T09:47:10.344Z,100592.77
2019-04-30T09:50:15.268Z,100591.58
2019-04-30T09:53:19.485Z,100590.78
2019-04-30T09:56:23.694Z,100590.05
2019-04-30T09:59:29.140Z,100586.22
2019-04-30T10:02:32.970Z,100581.73
2019-04-30T10:05:36.574Z,100575.89
2019-04-30T10:08:48.302Z,100580.23
2019-04-30T10:11:59.556Z,100582.67
2019-04-30T10:15:03.651Z,100576.34
2019-04-30T10:18:07.848Z,100568.30
2019-04-30T10:21:11.543Z,100557.59
2019-04-30T10:24:16.909Z,100562.87
2019-04-30T10:27:20.575Z,100562.48
2019-04-30T10:30:29.104Z,100563.92
2019-04-30T10:33:32.637Z,100556.06
2019-04-30T10:36:36.314Z,100552.05
2019-04-30T10:39:40.082Z,100544.38
2019-04-30T10:42:43.676Z,100541.37
2019-04-30T10:45:48.577Z,100541.64
2019-04-30T10:48:52.247Z,100538.87
2019-04-30T10:51:55.851Z,100526.34
2019-04-30T10:54:59.657Z,100541.64
2019-04-30T10:58:03.315Z,100544.15
2019-04-30T11:01:07.027Z,100538.28
2019-04-30T11:04:10.707Z,100542.61
2019-04-30T11:07:14.945Z,100549.67
2019-04-30T11:10:19.048Z,100543.55
2019-04-30T11:13:22.649Z,100549.14
2019-04-30T11:16:26.329Z,100549.16
2019-04-30T11:19:30.220Z,100549.39
2019-04-30T11:22:34.292Z,100539.66
2019-04-30T11:25:41.207Z,100534.42
2019-04-30T11:28:45.995Z,100532.65
2019-04-30T11:31:57.636Z,100535.48
2019-04-30T11:35:01.292Z,100509.86
2019-04-30T11:38:05.353Z,100509.86
2019-04-30T11:41:09.035Z,100521.36
2019-04-30T11:44:12.668Z,100511.48
2019-04-30T11:47:24.492Z,100521.30
2019-04-30T11:50:29.974Z,100506.89
2019-04-30T11:53:33.861Z,100515.06
2019-04-30T11:56:39.012Z,100515.72
2019-04-30T11:59:42.630Z,100511.55
2019-04-30T12:02:46.530Z,100514.97
2019-04-30T12:05:50.157Z,100507.48
2019-04-30T12:08:59.719Z,100497.91
2019-04-30T12:12:03.408Z,100504.33
2019-04-30T12:15:09.333Z,100493.81
2019-04-30T12:18:13.066Z,100498.34
2019-04-30T12:21:18.213Z,100484.53
2019-04-30T12:24:24.514Z,100485.16
2019-04-30T12:27:28.755Z,100484.31
2019-04-30T12:30:32.535Z,100481.05
2019-04-30T12:33:36.158Z,100479.48
2019-04-30T12:36:39.762Z,100470.30
2019-04-30T12:39:43.381Z,100461.73
2019-04-30T12:42:48.704Z,100465.20
2019-04-30T12:46:02.611Z,100464.22
2019-04-30T12:49:00.891Z,100468.34
2019-04-30T12:52:06.150Z,100472.33
2019-04-30T12:55:15.689Z,100468.08
2019-04-30T12:58:21.336Z,100453.34
2019-04-30T13:01:25.057Z,100465.16
2019-04-30T13:04:29.331Z,100455.48
2019-04-30T13:07:33.673Z,100454.18
2019-04-30T13:10:38.147Z,100442.30
2019-04-30T13:13:42.727Z,100432.36
2019-04-30T13:16:48.564Z,100436.05
2019-04-30T13:19:54.922Z,100426.55
2019-04-30T13:22:58.982Z,100406.20
2019-04-30T13:26:08.918Z,100414.49
2019-04-30T13:29:17.949Z,100404.13
2019-04-30T13:32:30.858Z,100406.09
2019-04-30T13:35:39.370Z,100406.48
2019-04-30T13:38:51.668Z,100408.48
2019-04-30T13:42:00.398Z,100408.48
2019-04-30T13:45:06.494Z,100401.23
2019-04-30T13:48:10.124Z,100401.23
2019-04-30T13:51:13.761Z,100394.42
2019-04-30T13:54:19.098Z,100393.77
2019-04-30T13:57:22.709Z,100392.27
2019-04-30T14:00:29.698Z,100397.97
2019-04-30T14:03:36.726Z,100382.91
2019-04-30T14:06:49.436Z,100389.03
2019-04-30T14:09:55.863Z,100393.93
2019-04-30T14:13:01.424Z,100388.33
2019-04-30T14:16:08.167Z,100392.22
2019-04-30T14:19:11.723Z,100392.41
2019-04-30T14:22:15.431Z,100391.03
2019-04-30T14:25:19.240Z,100388.47
2019-04-30T14:28:25.903Z,100383.61
2019-04-30T14:31:29.548Z,100381.80
2019-04-30T14:34:33.285Z,100369.73
2019-04-30T14:37:38.867Z,100371.57
2019-04-30T14:40:51.029Z,100364.09
2019-04-30T14:43:59.948Z,100370.50
2019-04-30T14:47:15.656Z,100368.84
2019-04-30T14:50:22.768Z,100364.41
2019-04-30T14:53:30.566Z,100360.92
2019-04-30T14:56:35.049Z,100354.43
2019-04-30T14:59:51.144Z,100355.63
2019-04-30T15:02:59.427Z,100360.64
2019-04-30T15:06:03.093Z,100357.34
2019-04-30T15:09:11.045Z,100353.02
2019-04-30T15:12:14.755Z,100354.81
2019-04-30T15:15:19.191Z,100343.47
2019-04-30T15:18:23.015Z,100352.36
2019-04-30T15:21:29.380Z,100354.50
2019-04-30T15:24:39.289Z,100347.66
2019-04-30T15:27:45.036Z,100332.52
2019-04-30T15:30:48.878Z,100343.36
2019-04-30T15:34:02.571Z,100334.62
2019-04-30T15:37:04.037Z,100345.39
2019-04-30T15:40:09.189Z,100341.09
2019-04-30T15:43:12.810Z,100342.51
2019-04-30T15:46:20.838Z,100342.56
2019-04-30T15:49:24.424Z,100345.52
2019-04-30T15:52:28.857Z,100340.66
2019-04-30T15:55:34.246Z,100344.38
2019-04-30T15:58:41.044Z,100348.61
2019-04-30T16:01:49.064Z,100341.86
2019-04-30T16:05:08.486Z,100345.98
2019-04-30T16:08:15.353Z,100344.58
2019-04-30T16:11:22.668Z,100338.91
2019-04-30T16:14:29.428Z,100334.17
2019-04-30T16:17:33.467Z,100331.70
2019-04-30T16:20:37.049Z,100333.97
2019-04-30T16:23:40.751Z,100334.80
2019-04-30T16:26:49.443Z,100334.72
2019-04-30T16:29:53.115Z,100321.47
2019-04-30T16:32:56.802Z,100323.88
2019-04-30T16:36:00.549Z,100321.48
2019-04-30T16:39:06.261Z,100315.97
2019-04-30T16:42:09.954Z,100318.31
2019-04-30T16:45:13.849Z,100307.48
2019-04-30T16:48:19.409Z,100304.52
2019-04-30T16:51:22.897Z,100305.94
2019-04-30T16:54:28.467Z,100306.69
2019-04-30T16:57:31.988Z,100306.69
2019-04-30T17:00:36.266Z,100298.05
2019-04-30T17:03:41.610Z,100295.95
2019-04-30T17:07:01.720Z,100300.81
2019-04-30T17:10:10.686Z,100307.36
2019-04-30T17:13:25.134Z,100299.28
2019-04-30T17:16:30.450Z,100304.39
2019-04-30T17:19:34.102Z,100301.93
2019-04-30T17:22:39.522Z,100299.11
2019-04-30T17:25:48.033Z,100294.95
2019-04-30T17:28:51.346Z,100300.58
2019-04-30T17:31:59.740Z,100301.13
2019-04-30T17:35:04.485Z,100299.13
2019-04-30T17:38:08.280Z,100302.81
2019-04-30T17:41:12.063Z,100302.98
2019-04-30T17:44:21.469Z,100300.94
2019-04-30T17:47:25.430Z,100301.43
2019-04-30T17:50:33.351Z,100292.62
2019-04-30T17:53:38.935Z,100296.12
2019-04-30T17:56:44.334Z,100297.16
2019-04-30T17:59:48.862Z,100293.69
2019-04-30T18:02:52.930Z,100291.23
2019-04-30T18:05:56.674Z,100292.76
2019-04-30T18:09:00.346Z,100288.36
2019-04-30T18:12:04.202Z,100296.45
2019-04-30T18:15:13.032Z,100293.25
2019-04-30T18:18:24.421Z,100292.09
2019-04-30T18:21:29.696Z,100293.40
2019-04-30T18:24:39.391Z,100293.77
2019-04-30T18:27:50.904Z,100308.58
2019-04-30T18:30:54.689Z,100306.28
2019-04-30T18:33:59.326Z,100309.59
2019-04-30T18:37:03.045Z,100303.50
2019-04-30T18:40:09.611Z,100302.30
2019-04-30T18:43:13.199Z,100310.39
2019-04-30T18:46:16.862Z,100304.81
2019-04-30T18:49:20.405Z,100312.21
2019-04-30T18:52:24.131Z,100308.80
2019-04-30T18:55:27.714Z,100305.39
2019-04-30T18:58:39.850Z,100306.60
2019-04-30T19:01:36.675Z,100307.44
2019-04-30T19:04:40.950Z,100308.95
2019-04-30T19:07:48.814Z,100319.84
2019-04-30T19:10:54.494Z,100310.02
2019-04-30T19:14:09.567Z,100313.28
2019-04-30T19:17:15.065Z,100313.30
2019-04-30T19:20:20.279Z,100317.63
2019-04-30T19:23:25.371Z,100316.09
2019-04-30T19:26:29.341Z,100327.45
2019-04-30T19:29:35.113Z,100327.75
2019-04-30T19:32:39.034Z,100324.08
2019-04-30T19:35:42.908Z,100322.64
2019-04-30T19:38:46.493Z,100322.64
2019-04-30T19:41:50.100Z,100327.45
2019-04-30T19:44:59.794Z,100332.83
2019-04-30T19:47:59.108Z,100328.00
2019-04-30T19:51:02.855Z,100335.78
2019-04-30T19:54:06.458Z,100328.63
2019-04-30T19:57:11.741Z,100324.31
2019-04-30T20:00:15.858Z,100330.41
2019-04-30T20:03:19.860Z,100328.50
2019-04-30T20:06:25.780Z,100323.66
2019-04-30T20:09:29.226Z,100331.55
2019-04-30T20:12:34.336Z,100333.41
2019-04-30T20:15:46.463Z,100333.52
2019-04-30T20:18:49.026Z,100327.11
2019-04-30T20:21:54.086Z,100329.17
2019-04-30T20:25:03.733Z,100327.30
2019-04-30T20:28:07.359Z,100329.67
2019-04-30T20:31:11.600Z,100333.19
2019-04-30T20:34:15.348Z,100326.20
2019-04-30T20:37:19.608Z,100325.98
2019-04-30T20:40:25.134Z,100326.80
2019-04-30T20:43:28.871Z,100332.02
2019-04-30T20:46:35.196Z,100328.16
2019-04-30T20:49:39.063Z,100329.27
2019-04-30T20:52:42.893Z,100327.27
2019-04-30T20:56:01.724Z,100332.16
2019-04-30T20:59:10.619Z,100326.91
2019-04-30T21:02:14.767Z,100325.50
2019-04-30T21:05:18.370Z,100322.78
2019-04-30T21:08:22.039Z,100320.06
2019-04-30T21:11:25.622Z,100323.51
2019-04-30T21:14:29.365Z,100324.23
2019-04-30T21:17:33.014Z,100321.58
2019-04-30T21:20:38.721Z,100323.87
2019-04-30T21:23:41.964Z,100328.50
2019-04-30T21:26:45.564Z,100330.31
2019-04-30T21:29:49.354Z,100335.33
2019-04-30T21:32:54.666Z,100338.05
2019-04-30T21:35:59.902Z,100329.69
2019-04-30T21:39:04.780Z,100334.70
2019-04-30T21:42:09.312Z,100331.04
2019-04-30T21:45:13.204Z,100327.40
2019-04-30T21:48:18.987Z,100332.92
2019-04-30T21:51:22.194Z,100330.02
2019-04-30T21:54:26.030Z,100325.06
2019-04-30T21:57:29.662Z,100331.48
2019-04-30T22:00:41.470Z,100323.66
2019-04-30T22:03:46.275Z,100324.09
2019-04-30T22:06:49.989Z,100321.98
2019-04-30T22:09:53.691Z,100321.56
2019-04-30T22:12:58.617Z,100316.55
2019-04-30T22:16:02.158Z,100317.36
2019-04-30T22:19:05.747Z,100314.30
2019-04-30T22:22:09.476Z,100315.28
2019-04-30T22:25:13.353Z,100313.47
2019-04-30T22:28:16.902Z,100316.23
2019-04-30T22:31:20.528Z,100308.61
2019-04-30T22:34:24.140Z,100307.25
2019-04-30T22:37:27.686Z,100307.30
2019-04-30T22:40:31.645Z,100303.36
2019-04-30T22:43:35.270Z,100308.47
2019-04-30T22:46:39.365Z,100304.51
2019-04-30T22:49:43.087Z,100304.31
2019-04-30T22:52:46.616Z,100300.58
2019-04-30T22:55:50.168Z,100301.59
2019-04-30T22:58:53.718Z,100299.79
2019-04-30T23:02:15.674Z,100295.06
2019-04-30T23:05:19.487Z,100302.44
2019-04-30T23:08:22.999Z,100294.91
2019-04-30T23:11:27.112Z,100288.63
2019-04-30T23:14:33.379Z,100293.09
2019-04-30T23:17:37.039Z,100289.39
2019-04-30T23:20:40.718Z,100289.47
2019-04-30T23:23:44.416Z,100289.47
2019-04-30T23:26:48.025Z,100290.06
2019-04-30T23:30:02.777Z,100287.39
2019-04-30T23:32:58.609Z,100286.41
2019-04-30T23:36:02.226Z,100278.41
2019-04-30T23:39:06.598Z,100279.81
2019-04-30T23:42:10.163Z,100276.97
2019-04-30T23:48:30.940Z,100272.70
2019-04-30T23:51:34.783Z,100269.39
2019-04-30T23:54:38.653Z,100266.52
2019-04-30T23:57:42.491Z,100262.45
